Terminal Aerodrome Forecast
Issued by NWS

Home | Current Version | Previous Version | Text Only | Print | Product List | Glossary On
Versions: 1 2 3 4 5 6 7 8 9 10 11 12 13 14 15 16 17
000
FTUS43 KIND 280500
TAFHUF
TAF
KHUF 280520Z 2806/2906 02005KT P6SM SKC
     FM281000 02004KT P6SM SCT100 SCT250
     FM282000 01006KT P6SM SKC
     FM290100 04003KT P6SM FEW250=

USA.gov is the U.S. government's official web portal to all federal, state and local government web resources and services.